Dolomite, Alabama
Current Conditions -  °F | °C
As of 9:53 AM on Sunday 25 Jan 2015 (Local Time) from KBHM Reporting Station
Clear Clear  
Wind Chill: 45°   Ceiling: Unl
Heat Index: 49°   Visibility: 10mi
Dew Point: 34°   Wind: 8mph
Humidity: 56%   Direction: 230°SW
Pressure: 29.91"   Gusts: NA
Location:  33.46°N, 86.96°W
Report Text: KBHM 251553Z 23007KT 10SM CLR 09/01 A2991 RMK AO2 SLP129 T00940011
Loading
Personal Weather Stations






























Interactive Weather Map New forecast layout! Learn more

10-Day Weather Forecast

Advertisements
Track Severe Weather on mobile